Skip Navigation Links Skip Navigation Links

Current Weather

Cherokee Muni, Cherokee, Iowa

For information only: do not use for flight planning or navigation.
Latest weather
Observation time Monday, October 18, 2021 3:35 PM CDT
Local time Monday, October 18, 2021 3:55 PM CDT
Flight conditions Visual Meteorological Conditions
Winds
Wind direction South (190°)
Wind speed 18 mph
Wind gusting to 23 mph
Visibility 10 mi.
Sky condition
Ceiling unlimited
Sky clear
Temperature 74°F
Dewpoint 38°F
Altimeter 29.90 in.Hg
Derived measurements
Relative humidity 27%
Density altitude 2350 ft.
Remarks
Fully automated report.
Automated weather observing station with precipitation discriminator.
METAR KCKP 182035Z AUTO 19016G20KT 10SM CLR 24/04 A2990 RMK AO2 T02350035

Settings

Location code

InnerDrive.Weather 4.0.6770.0 Release CLR 4.0.30319.42000
Copyright ©2018 Inner Drive Technology. All rights reserved. Portions Copyright ©1986-2018 David Braverman.

Find weather

Site navigation


Skip Navigation Links

Place info

Page info

PayPal - The safer, easier way to pay online!

Return home.

Copyright ©2021 Inner Drive Technology. Purveyors of fine, hand-crafted computer software. Page printed 2021-10-18T20:55:24 UTC.